sensor_id;sensor_type;location;lat;lon;timestamp;pressure;altitude;pressure_sealevel;temperature;humidity
8298;BME280;4187;42.778;23.242;2023-07-09T00:00:45;95699.09;;;16.45;100.00
8298;BME280;4187;42.778;23.242;2023-07-09T00:03:12;95705.25;;;16.54;100.00
8298;BME280;4187;42.778;23.242;2023-07-09T00:05:39;95700.06;;;16.52;100.00
8298;BME280;4187;42.778;23.242;2023-07-09T00:08:16;95688.56;;;16.52;100.00
8298;BME280;4187;42.778;23.242;2023-07-09T00:10:48;95680.44;;;16.45;100.00
8298;BME280;4187;42.778;23.242;2023-07-09T00:13:15;95691.75;;;16.55;100.00
8298;BME280;4187;42.778;23.242;2023-07-09T00:15:42;95695.44;;;16.54;100.00
8298;BME280;4187;42.778;23.242;2023-07-09T00:18:10;95694.41;;;16.47;100.00
8298;BME280;4187;42.778;23.242;2023-07-09T00:20:37;95698.56;;;16.50;100.00
8298;BME280;4187;42.778;23.242;2023-07-09T00:23:04;95683.13;;;16.37;100.00
8298;BME280;4187;42.778;23.242;2023-07-09T00:25:31;95701.44;;;16.40;100.00
8298;BME280;4187;42.778;23.242;2023-07-09T00:28:01;95694.44;;;16.39;100.00
8298;BME280;4187;42.778;23.242;2023-07-09T00:30:28;95700.25;;;16.43;100.00
8298;BME280;4187;42.778;23.242;2023-07-09T00:32:55;95701.44;;;16.40;100.00
8298;BME280;4187;42.778;23.242;2023-07-09T00:35:23;95695.44;;;16.30;100.00
8298;BME280;4187;42.778;23.242;2023-07-09T00:37:50;95692.44;;;16.25;100.00
8298;BME280;4187;42.778;23.242;2023-07-09T00:40:19;95690.13;;;16.22;100.00
8298;BME280;4187;42.778;23.242;2023-07-09T00:42:47;95688.84;;;16.10;100.00
8298;BME280;4187;42.778;23.242;2023-07-09T00:45:19;95682.16;;;16.14;100.00
8298;BME280;4187;42.778;23.242;2023-07-09T00:47:53;95675.84;;;16.07;100.00
8298;BME280;4187;42.778;23.242;2023-07-09T00:50:36;95680.66;;;16.03;100.00
8298;BME280;4187;42.778;23.242;2023-07-09T00:53:13;95663.53;;;15.90;100.00
8298;BME280;4187;42.778;23.242;2023-07-09T00:55:44;95679.88;;;16.03;100.00
8298;BME280;4187;42.778;23.242;2023-07-09T00:58:14;95677.34;;;16.01;100.00
8298;BME280;4187;42.778;23.242;2023-07-09T01:00:44;95677.69;;;16.06;100.00
8298;BME280;4187;42.778;23.242;2023-07-09T01:03:18;95677.53;;;16.08;100.00
8298;BME280;4187;42.778;23.242;2023-07-09T01:05:48;95677.69;;;16.06;100.00
8298;BME280;4187;42.778;23.242;2023-07-09T01:08:17;95674.03;;;15.99;100.00
8298;BME280;4187;42.778;23.242;2023-07-09T01:10:45;95680.88;;;15.94;100.00
8298;BME280;4187;42.778;23.242;2023-07-09T01:13:12;95681.38;;;15.89;100.00
8298;BME280;4187;42.778;23.242;2023-07-09T01:15:39;95681.53;;;15.88;100.00
8298;BME280;4187;42.778;23.242;2023-07-09T01:18:07;95682.03;;;15.91;100.00
8298;BME280;4187;42.778;23.242;2023-07-09T01:20:38;95683.53;;;15.94;100.00
8298;BME280;4187;42.778;23.242;2023-07-09T01:23:07;95677.88;;;15.89;100.00
8298;BME280;4187;42.778;23.242;2023-07-09T01:25:36;95663.09;;;15.78;100.00
8298;BME280;4187;42.778;23.242;2023-07-09T01:28:05;95665.88;;;15.85;100.00
8298;BME280;4187;42.778;23.242;2023-07-09T01:30:36;95666.41;;;15.88;100.00
8298;BME280;4187;42.778;23.242;2023-07-09T01:33:04;95665.88;;;15.85;100.00
8298;BME280;4187;42.778;23.242;2023-07-09T01:35:34;95667.38;;;15.87;100.00
8298;BME280;4187;42.778;23.242;2023-07-09T01:38:02;95673.72;;;15.94;100.00
8298;BME280;4187;42.778;23.242;2023-07-09T01:40:33;95669.56;;;15.84;100.00
8298;BME280;4187;42.778;23.242;2023-07-09T01:43:03;95673.41;;;15.81;100.00
8298;BME280;4187;42.778;23.242;2023-07-09T01:45:32;95676.53;;;15.77;100.00
8298;BME280;4187;42.778;23.242;2023-07-09T01:47:59;95684.84;;;15.74;100.00
8298;BME280;4187;42.778;23.242;2023-07-09T01:50:29;95673.72;;;15.62;100.00
8298;BME280;4187;42.778;23.242;2023-07-09T01:52:58;95687.19;;;15.61;100.00
8298;BME280;4187;42.778;23.242;2023-07-09T01:55:25;95694.50;;;15.59;100.00
8298;BME280;4187;42.778;23.242;2023-07-09T01:57:55;95683.16;;;15.40;100.00
8298;BME280;4187;42.778;23.242;2023-07-09T02:00:22;95684.03;;;15.49;100.00
8298;BME280;4187;42.778;23.242;2023-07-09T02:02:49;95684.03;;;15.57;100.00
8298;BME280;4187;42.778;23.242;2023-07-09T02:05:18;95687.34;;;15.51;100.00
8298;BME280;4187;42.778;23.242;2023-07-09T02:07:45;95684.84;;;15.49;100.00
8298;BME280;4187;42.778;23.242;2023-07-09T02:10:16;95686.50;;;15.50;100.00
8298;BME280;4187;42.778;23.242;2023-07-09T02:12:43;95689.50;;;15.47;100.00
8298;BME280;4187;42.778;23.242;2023-07-09T02:15:12;95679.03;;;15.46;100.00
8298;BME280;4187;42.778;23.242;2023-07-09T02:17:39;95682.88;;;15.51;100.00
8298;BME280;4187;42.778;23.242;2023-07-09T02:20:07;95682.38;;;15.56;100.00
8298;BME280;4187;42.778;23.242;2023-07-09T02:22:35;95688.66;;;15.47;100.00
8298;BME280;4187;42.778;23.242;2023-07-09T02:25:03;95682.50;;;15.46;100.00
8298;BME280;4187;42.778;23.242;2023-07-09T02:27:31;95689.78;;;15.44;100.00
8298;BME280;4187;42.778;23.242;2023-07-09T02:30:00;95630.06;;;14.98;100.00
8298;BME280;4187;42.778;23.242;2023-07-09T02:32:29;95690.59;;;15.21;100.00
8298;BME280;4187;42.778;23.242;2023-07-09T02:34:56;95696.38;;;15.08;100.00
8298;BME280;4187;42.778;23.242;2023-07-09T02:37:25;95690.72;;;15.11;100.00
8298;BME280;4187;42.778;23.242;2023-07-09T02:39:52;95694.19;;;15.04;100.00
8298;BME280;4187;42.778;23.242;2023-07-09T02:42:20;95705.69;;;15.12;100.00
8298;BME280;4187;42.778;23.242;2023-07-09T02:44:49;95710.97;;;15.04;100.00
8298;BME280;4187;42.778;23.242;2023-07-09T02:47:16;95718.13;;;15.04;100.00
8298;BME280;4187;42.778;23.242;2023-07-09T02:49:44;95701.69;;;15.00;100.00
8298;BME280;4187;42.778;23.242;2023-07-09T02:52:11;95724.47;;;15.11;100.00
8298;BME280;4187;42.778;23.242;2023-07-09T02:54:38;95733.44;;;15.10;100.00
8298;BME280;4187;42.778;23.242;2023-07-09T02:57:06;95738.41;;;15.13;100.00
8298;BME280;4187;42.778;23.242;2023-07-09T02:59:33;95732.94;;;15.14;100.00
8298;BME280;4187;42.778;23.242;2023-07-09T03:02:01;95737.91;;;15.09;100.00
8298;BME280;4187;42.778;23.242;2023-07-09T03:04:29;95744.91;;;15.10;100.00
8298;BME280;4187;42.778;23.242;2023-07-09T03:06:58;95741.41;;;15.10;100.00
8298;BME280;4187;42.778;23.242;2023-07-09T03:09:26;95741.34;;;14.93;100.00
8298;BME280;4187;42.778;23.242;2023-07-09T03:11:53;95741.13;;;14.87;100.00
8298;BME280;4187;42.778;23.242;2023-07-09T03:14:20;95744.28;;;14.82;100.00
8298;BME280;4187;42.778;23.242;2023-07-09T03:16:47;95741.63;;;14.82;100.00
8298;BME280;4187;42.778;23.242;2023-07-09T03:19:14;95747.59;;;14.84;100.00
8298;BME280;4187;42.778;23.242;2023-07-09T03:21:40;95743.16;;;14.93;100.00
8298;BME280;4187;42.778;23.242;2023-07-09T03:24:09;95746.13;;;14.90;100.00
8298;BME280;4187;42.778;23.242;2023-07-09T03:26:35;95737.94;;;14.75;100.00
8298;BME280;4187;42.778;23.242;2023-07-09T03:29:02;95738.63;;;14.77;100.00
8298;BME280;4187;42.778;23.242;2023-07-09T03:31:30;95740.75;;;14.74;100.00
8298;BME280;4187;42.778;23.242;2023-07-09T03:34:01;95732.28;;;15.12;100.00
8298;BME280;4187;42.778;23.242;2023-07-09T03:36:28;95741.22;;;15.61;100.00
8298;BME280;4187;42.778;23.242;2023-07-09T03:38:55;95727.78;;;15.95;100.00
8298;BME280;4187;42.778;23.242;2023-07-09T03:41:24;95744.06;;;16.32;100.00
8298;BME280;4187;42.778;23.242;2023-07-09T03:43:51;95742.03;;;16.50;100.00
8298;BME280;4187;42.778;23.242;2023-07-09T03:46:20;95751.53;;;16.61;100.00
8298;BME280;4187;42.778;23.242;2023-07-09T03:48:46;95749.53;;;16.47;100.00
8298;BME280;4187;42.778;23.242;2023-07-09T03:51:15;95757.19;;;16.34;100.00
8298;BME280;4187;42.778;23.242;2023-07-09T03:53:42;95756.38;;;16.17;100.00
8298;BME280;4187;42.778;23.242;2023-07-09T03:56:09;95763.38;;;16.10;100.00
8298;BME280;4187;42.778;23.242;2023-07-09T03:58:37;95760.38;;;15.89;100.00
8298;BME280;4187;42.778;23.242;2023-07-09T04:01:04;95749.72;;;15.73;100.00
8298;BME280;4187;42.778;23.242;2023-07-09T04:03:31;95751.22;;;15.67;100.00
8298;BME280;4187;42.778;23.242;2023-07-09T04:05:57;95752.19;;;15.58;100.00
8298;BME280;4187;42.778;23.242;2023-07-09T04:08:24;95751.69;;;15.54;100.00
8298;BME280;4187;42.778;23.242;2023-07-09T04:10:53;95760.16;;;15.58;100.00
8298;BME280;4187;42.778;23.242;2023-07-09T04:13:20;95765.69;;;15.65;100.00
8298;BME280;4187;42.778;23.242;2023-07-09T04:15:48;95761.34;;;15.72;100.00
8298;BME280;4187;42.778;23.242;2023-07-09T04:18:15;95764.69;;;15.74;100.00
8298;BME280;4187;42.778;23.242;2023-07-09T04:20:42;95765.06;;;15.87;100.00
8298;BME280;4187;42.778;23.242;2023-07-09T04:23:09;95767.22;;;16.07;100.00
8298;BME280;4187;42.778;23.242;2023-07-09T04:25:37;95768.38;;;16.13;100.00
8298;BME280;4187;42.778;23.242;2023-07-09T04:28:05;95767.22;;;16.15;100.00
8298;BME280;4187;42.778;23.242;2023-07-09T04:30:31;95772.03;;;16.28;100.00
8298;BME280;4187;42.778;23.242;2023-07-09T04:33:00;95773.34;;;16.40;100.00
8298;BME280;4187;42.778;23.242;2023-07-09T04:35:27;95779.50;;;16.49;100.00
8298;BME280;4187;42.778;23.242;2023-07-09T04:37:54;95774.66;;;16.60;100.00
8298;BME280;4187;42.778;23.242;2023-07-09T04:40:20;95780.16;;;16.67;100.00
8298;BME280;4187;42.778;23.242;2023-07-09T04:42:47;95776.34;;;16.69;100.00
8298;BME280;4187;42.778;23.242;2023-07-09T04:45:14;95770.66;;;16.81;100.00
8298;BME280;4187;42.778;23.242;2023-07-09T04:47:41;95776.94;;;16.88;100.00
8298;BME280;4187;42.778;23.242;2023-07-09T04:50:10;95773.06;;;16.98;100.00
8298;BME280;4187;42.778;23.242;2023-07-09T04:52:38;95768.84;;;17.12;100.00
8298;BME280;4187;42.778;23.242;2023-07-09T04:55:06;95772.16;;;17.22;100.00
8298;BME280;4187;42.778;23.242;2023-07-09T04:57:34;95783.06;;;17.43;100.00
8298;BME280;4187;42.778;23.242;2023-07-09T05:00:02;95781.69;;;17.55;100.00
8298;BME280;4187;42.778;23.242;2023-07-09T05:02:33;95759.34;;;17.56;100.00
8298;BME280;4187;42.778;23.242;2023-07-09T05:04:59;95782.22;;;17.81;100.00
8298;BME280;4187;42.778;23.242;2023-07-09T05:07:28;95793.59;;;17.98;100.00
8298;BME280;4187;42.778;23.242;2023-07-09T05:09:54;95792.66;;;18.14;100.00
8298;BME280;4187;42.778;23.242;2023-07-09T05:12:21;95787.34;;;18.28;100.00
8298;BME280;4187;42.778;23.242;2023-07-09T05:14:48;95794.41;;;18.44;100.00
8298;BME280;4187;42.778;23.242;2023-07-09T05:17:15;95795.31;;;18.59;100.00
8298;BME280;4187;42.778;23.242;2023-07-09T05:19:42;95802.97;;;18.62;100.00
8298;BME280;4187;42.778;23.242;2023-07-09T05:22:08;95804.81;;;18.76;100.00
8298;BME280;4187;42.778;23.242;2023-07-09T05:24:37;95803.25;;;18.82;100.00
8298;BME280;4187;42.778;23.242;2023-07-09T05:27:04;95791.19;;;18.86;100.00
8298;BME280;4187;42.778;23.242;2023-07-09T05:29:31;95803.19;;;19.04;100.00
8298;BME280;4187;42.778;23.242;2023-07-09T05:31:57;95796.47;;;19.23;100.00
8298;BME280;4187;42.778;23.242;2023-07-09T05:34:24;95802.97;;;19.43;100.00
8298;BME280;4187;42.778;23.242;2023-07-09T05:36:51;95802.19;;;19.64;100.00
8298;BME280;4187;42.778;23.242;2023-07-09T05:39:18;95802.31;;;19.77;100.00
8298;BME280;4187;42.778;23.242;2023-07-09T05:41:46;95794.44;;;19.90;100.00
8298;BME280;4187;42.778;23.242;2023-07-09T05:44:13;95782.38;;;20.01;100.00
8298;BME280;4187;42.778;23.242;2023-07-09T05:46:40;95793.50;;;20.19;100.00
8298;BME280;4187;42.778;23.242;2023-07-09T05:49:07;95799.88;;;20.33;100.00
8298;BME280;4187;42.778;23.242;2023-07-09T05:51:35;95794.63;;;20.46;100.00
8298;BME280;4187;42.778;23.242;2023-07-09T05:54:02;95798.19;;;20.53;100.00
8298;BME280;4187;42.778;23.242;2023-07-09T05:56:29;95797.19;;;20.60;100.00
8298;BME280;4187;42.778;23.242;2023-07-09T05:58:57;95798.19;;;20.80;100.00
8298;BME280;4187;42.778;23.242;2023-07-09T06:01:25;95801.59;;;20.96;100.00
8298;BME280;4187;42.778;23.242;2023-07-09T06:03:52;95793.47;;;21.10;100.00
8298;BME280;4187;42.778;23.242;2023-07-09T06:06:20;95799.38;;;21.27;100.00
8298;BME280;4187;42.778;23.242;2023-07-09T06:08:47;95791.31;;;21.27;100.00
8298;BME280;4187;42.778;23.242;2023-07-09T06:11:15;95807.34;;;21.55;100.00
8298;BME280;4187;42.778;23.242;2023-07-09T06:13:45;95797.31;;;21.70;100.00
8298;BME280;4187;42.778;23.242;2023-07-09T06:16:14;95801.94;;;21.89;100.00
8298;BME280;4187;42.778;23.242;2023-07-09T06:18:41;95795.16;;;22.06;100.00
8298;BME280;4187;42.778;23.242;2023-07-09T06:21:07;95803.66;;;22.10;100.00
8298;BME280;4187;42.778;23.242;2023-07-09T06:23:37;95797.66;;;22.14;100.00
8298;BME280;4187;42.778;23.242;2023-07-09T06:26:03;95729.94;;;21.84;100.00
8298;BME280;4187;42.778;23.242;2023-07-09T06:28:30;95804.31;;;22.31;100.00
8298;BME280;4187;42.778;23.242;2023-07-09T06:30:57;95812.19;;;22.39;100.00
8298;BME280;4187;42.778;23.242;2023-07-09T06:33:26;95797.13;;;22.51;100.00
8298;BME280;4187;42.778;23.242;2023-07-09T06:35:54;95794.44;;;22.51;100.00
8298;BME280;4187;42.778;23.242;2023-07-09T06:38:22;95803.94;;;22.60;100.00
8298;BME280;4187;42.778;23.242;2023-07-09T06:40:50;95798.41;;;22.75;100.00
8298;BME280;4187;42.778;23.242;2023-07-09T06:43:17;95800.06;;;22.89;100.00
8298;BME280;4187;42.778;23.242;2023-07-09T06:45:51;95809.53;;;23.11;100.00
8298;BME280;4187;42.778;23.242;2023-07-09T06:48:18;95794.81;;;23.20;100.00
8298;BME280;4187;42.778;23.242;2023-07-09T06:50:47;95808.47;;;23.32;100.00
8298;BME280;4187;42.778;23.242;2023-07-09T06:53:14;95814.09;;;23.44;100.00
8298;BME280;4187;42.778;23.242;2023-07-09T06:55:41;95811.97;;;23.59;98.52
8298;BME280;4187;42.778;23.242;2023-07-09T06:58:08;95806.75;;;23.64;100.00
8298;BME280;4187;42.778;23.242;2023-07-09T07:00:35;95770.91;;;23.63;99.77
8298;BME280;4187;42.778;23.242;2023-07-09T07:03:03;95796.25;;;24.00;96.95
8298;BME280;4187;42.778;23.242;2023-07-09T07:05:30;95788.16;;;24.00;99.94
8298;BME280;4187;42.778;23.242;2023-07-09T07:07:59;95798.06;;;24.13;97.64
8298;BME280;4187;42.778;23.242;2023-07-09T07:10:26;95802.63;;;24.12;96.30
8298;BME280;4187;42.778;23.242;2023-07-09T07:12:53;95801.94;;;24.30;94.92
8298;BME280;4187;42.778;23.242;2023-07-09T07:15:20;95800.16;;;24.42;95.11
8298;BME280;4187;42.778;23.242;2023-07-09T07:17:47;95804.47;;;24.50;92.00
8298;BME280;4187;42.778;23.242;2023-07-09T07:20:16;95800.44;;;24.65;92.58
8298;BME280;4187;42.778;23.242;2023-07-09T07:22:42;95794.53;;;24.81;94.74
8298;BME280;4187;42.778;23.242;2023-07-09T07:25:11;95794.31;;;25.01;92.86
8298;BME280;4187;42.778;23.242;2023-07-09T07:27:38;95792.63;;;25.07;91.66
8298;BME280;4187;42.778;23.242;2023-07-09T07:30:06;95791.28;;;25.16;91.59
8298;BME280;4187;42.778;23.242;2023-07-09T07:32:35;95787.03;;;25.26;89.32
8298;BME280;4187;42.778;23.242;2023-07-09T07:35:03;95787.78;;;25.33;90.11
8298;BME280;4187;42.778;23.242;2023-07-09T07:37:29;95781.09;;;25.36;89.12
8298;BME280;4187;42.778;23.242;2023-07-09T07:39:56;95756.84;;;25.11;84.98
8298;BME280;4187;42.778;23.242;2023-07-09T07:42:24;95783.50;;;25.26;84.62
8298;BME280;4187;42.778;23.242;2023-07-09T07:44:51;95780.19;;;25.24;89.22
8298;BME280;4187;42.778;23.242;2023-07-09T07:47:19;95782.16;;;25.35;86.71
8298;BME280;4187;42.778;23.242;2023-07-09T07:49:46;95779.84;;;25.38;85.14
8298;BME280;4187;42.778;23.242;2023-07-09T07:52:14;95776.78;;;25.53;82.85
8298;BME280;4187;42.778;23.242;2023-07-09T07:54:41;95780.72;;;25.57;83.63
8298;BME280;4187;42.778;23.242;2023-07-09T07:57:08;95768.25;;;25.56;84.80
8298;BME280;4187;42.778;23.242;2023-07-09T07:59:38;95780.69;;;25.75;84.96
8298;BME280;4187;42.778;23.242;2023-07-09T08:02:06;95784.59;;;25.79;82.19
8298;BME280;4187;42.778;23.242;2023-07-09T08:04:33;95776.56;;;25.73;84.28
8298;BME280;4187;42.778;23.242;2023-07-09T08:07:00;95765.50;;;25.74;83.01
8298;BME280;4187;42.778;23.242;2023-07-09T08:09:27;95750.03;;;25.45;83.25
8298;BME280;4187;42.778;23.242;2023-07-09T08:11:54;95771.91;;;25.62;83.84
8298;BME280;4187;42.778;23.242;2023-07-09T08:14:21;95779.66;;;25.76;83.09
8298;BME280;4187;42.778;23.242;2023-07-09T08:16:49;95776.09;;;25.94;81.09
8298;BME280;4187;42.778;23.242;2023-07-09T08:19:18;95760.84;;;25.99;83.96
8298;BME280;4187;42.778;23.242;2023-07-09T08:21:45;95758.25;;;26.04;83.31
8298;BME280;4187;42.778;23.242;2023-07-09T08:24:12;95770.88;;;26.10;80.51
8298;BME280;4187;42.778;23.242;2023-07-09T08:26:40;95766.50;;;26.09;81.50
8298;BME280;4187;42.778;23.242;2023-07-09T08:29:06;95749.00;;;26.12;82.19
8298;BME280;4187;42.778;23.242;2023-07-09T08:31:33;95772.69;;;26.46;81.30
8298;BME280;4187;42.778;23.242;2023-07-09T08:34:01;95756.19;;;26.48;80.34
8298;BME280;4187;42.778;23.242;2023-07-09T08:36:28;95767.19;;;26.23;79.74
8298;BME280;4187;42.778;23.242;2023-07-09T08:38:55;95775.53;;;26.22;80.81
8298;BME280;4187;42.778;23.242;2023-07-09T08:41:36;95772.47;;;26.18;82.60
8298;BME280;4187;42.778;23.242;2023-07-09T08:44:16;95767.28;;;26.46;83.68
8298;BME280;4187;42.778;23.242;2023-07-09T08:46:56;95750.69;;;26.54;82.32
8298;BME280;4187;42.778;23.242;2023-07-09T08:49:36;95757.78;;;26.67;81.56
8298;BME280;4187;42.778;23.242;2023-07-09T08:52:11;95756.44;;;26.58;85.44
8298;BME280;4187;42.778;23.242;2023-07-09T08:54:41;95761.38;;;26.79;81.14
8298;BME280;4187;42.778;23.242;2023-07-09T08:57:17;95762.88;;;26.98;85.35
8298;BME280;4187;42.778;23.242;2023-07-09T08:59:47;95764.91;;;27.14;80.92
8298;BME280;4187;42.778;23.242;2023-07-09T09:05:06;95764.31;;;27.59;76.45
8298;BME280;4187;42.778;23.242;2023-07-09T09:07:39;95769.09;;;27.68;79.93
8298;BME280;4187;42.778;23.242;2023-07-09T09:10:11;95760.06;;;27.63;79.90
8298;BME280;4187;42.778;23.242;2023-07-09T09:12:43;95767.31;;;27.74;81.15
8298;BME280;4187;42.778;23.242;2023-07-09T09:15:17;95762.06;;;27.96;80.50
8298;BME280;4187;42.778;23.242;2023-07-09T09:17:45;95770.56;;;28.11;78.93
8298;BME280;4187;42.778;23.242;2023-07-09T09:20:20;95765.13;;;28.11;80.99
8298;BME280;4187;42.778;23.242;2023-07-09T09:22:50;95767.69;;;28.17;77.44
8298;BME280;4187;42.778;23.242;2023-07-09T09:25:24;95765.91;;;28.23;78.28
8298;BME280;4187;42.778;23.242;2023-07-09T09:27:54;95755.25;;;28.33;77.26
8298;BME280;4187;42.778;23.242;2023-07-09T09:30:23;95753.06;;;28.46;78.62
8298;BME280;4187;42.778;23.242;2023-07-09T09:32:54;95760.13;;;28.47;76.02
8298;BME280;4187;42.778;23.242;2023-07-09T09:35:27;95758.28;;;28.36;73.19
8298;BME280;4187;42.778;23.242;2023-07-09T09:37:56;95762.41;;;28.11;74.76
8298;BME280;4187;42.778;23.242;2023-07-09T09:40:25;95746.84;;;27.66;77.00
8298;BME280;4187;42.778;23.242;2023-07-09T09:42:56;95761.69;;;27.75;77.26
8298;BME280;4187;42.778;23.242;2023-07-09T09:45:27;95731.41;;;27.55;75.42
8298;BME280;4187;42.778;23.242;2023-07-09T09:47:59;95744.03;;;27.61;75.57
8298;BME280;4187;42.778;23.242;2023-07-09T09:50:32;95756.28;;;27.64;77.29
8298;BME280;4187;42.778;23.242;2023-07-09T09:52:59;95743.47;;;27.87;79.54
8298;BME280;4187;42.778;23.242;2023-07-09T09:55:29;95742.03;;;28.08;77.60
8298;BME280;4187;42.778;23.242;2023-07-09T09:57:58;95744.28;;;28.28;76.72
8298;BME280;4187;42.778;23.242;2023-07-09T10:00:27;95687.91;;;27.90;74.53
8298;BME280;4187;42.778;23.242;2023-07-09T10:02:58;95733.06;;;28.08;78.11
8298;BME280;4187;42.778;23.242;2023-07-09T10:05:31;95741.78;;;28.10;76.27
8298;BME280;4187;42.778;23.242;2023-07-09T10:08:02;95729.56;;;28.24;78.78
8298;BME280;4187;42.778;23.242;2023-07-09T10:10:32;95732.03;;;28.42;78.65
8298;BME280;4187;42.778;23.242;2023-07-09T10:13:03;95731.00;;;28.60;76.16
8298;BME280;4187;42.778;23.242;2023-07-09T10:15:38;95727.66;;;28.69;73.94
8298;BME280;4187;42.778;23.242;2023-07-09T10:18:14;95731.44;;;28.85;75.08
8298;BME280;4187;42.778;23.242;2023-07-09T10:21:03;95730.72;;;28.89;70.99
8298;BME280;4187;42.778;23.242;2023-07-09T10:23:36;95723.41;;;28.90;72.85
8298;BME280;4187;42.778;23.242;2023-07-09T10:26:10;95688.16;;;28.78;71.87
8298;BME280;4187;42.778;23.242;2023-07-09T10:29:02;95737.78;;;29.07;73.87
8298;BME280;4187;42.778;23.242;2023-07-09T10:31:38;95726.66;;;29.25;71.06
8298;BME280;4187;42.778;23.242;2023-07-09T10:34:17;95725.41;;;29.33;67.51
8298;BME280;4187;42.778;23.242;2023-07-09T10:37:05;95710.16;;;29.32;73.31
8298;BME280;4187;42.778;23.242;2023-07-09T10:39:38;95722.56;;;29.44;67.92
8298;BME280;4187;42.778;23.242;2023-07-09T10:42:14;95712.22;;;29.41;73.57
8298;BME280;4187;42.778;23.242;2023-07-09T10:44:46;95704.69;;;29.48;74.47
8298;BME280;4187;42.778;23.242;2023-07-09T10:47:24;95708.47;;;29.69;70.01
8298;BME280;4187;42.778;23.242;2023-07-09T10:49:53;95711.53;;;29.73;73.04
8298;BME280;4187;42.778;23.242;2023-07-09T10:52:25;95707.72;;;29.74;68.68
8298;BME280;4187;42.778;23.242;2023-07-09T10:54:58;95706.84;;;29.68;69.50
8298;BME280;4187;42.778;23.242;2023-07-09T10:57:29;95707.03;;;29.61;71.11
8298;BME280;4187;42.778;23.242;2023-07-09T10:59:58;95702.59;;;29.77;73.72
8298;BME280;4187;42.778;23.242;2023-07-09T11:02:27;95711.41;;;30.06;70.25
8298;BME280;4187;42.778;23.242;2023-07-09T11:04:57;95706.66;;;30.23;71.27
8298;BME280;4187;42.778;23.242;2023-07-09T11:07:30;95701.19;;;30.45;69.69
8298;BME280;4187;42.778;23.242;2023-07-09T11:10:01;95703.41;;;30.48;68.43
8298;BME280;4187;42.778;23.242;2023-07-09T11:12:34;95707.81;;;30.54;68.92
8298;BME280;4187;42.778;23.242;2023-07-09T11:15:06;95692.34;;;30.59;69.24
8298;BME280;4187;42.778;23.242;2023-07-09T11:17:39;95705.41;;;30.57;70.58
8298;BME280;4187;42.778;23.242;2023-07-09T11:20:17;95714.59;;;30.51;66.44
8298;BME280;4187;42.778;23.242;2023-07-09T11:22:52;95706.16;;;30.53;68.76
8298;BME280;4187;42.778;23.242;2023-07-09T11:25:28;95697.03;;;30.69;70.14
8298;BME280;4187;42.778;23.242;2023-07-09T11:28:02;95701.97;;;30.72;70.52
8298;BME280;4187;42.778;23.242;2023-07-09T11:30:29;95707.94;;;30.69;66.23
8298;BME280;4187;42.778;23.242;2023-07-09T11:32:58;95697.19;;;30.31;66.47
8298;BME280;4187;42.778;23.242;2023-07-09T11:35:27;95688.47;;;30.29;67.29
8298;BME280;4187;42.778;23.242;2023-07-09T11:37:56;95685.00;;;30.33;67.29
8298;BME280;4187;42.778;23.242;2023-07-09T11:40:33;95695.47;;;30.41;65.79
8298;BME280;4187;42.778;23.242;2023-07-09T11:43:00;95690.75;;;30.37;67.69
8298;BME280;4187;42.778;23.242;2023-07-09T11:45:30;95689.19;;;30.41;67.79
8298;BME280;4187;42.778;23.242;2023-07-09T11:48:02;95684.41;;;30.58;69.17
8298;BME280;4187;42.778;23.242;2023-07-09T11:50:40;95683.25;;;30.80;64.34
8298;BME280;4187;42.778;23.242;2023-07-09T11:53:27;95687.84;;;30.75;67.41
8298;BME280;4187;42.778;23.242;2023-07-09T11:55:55;95690.63;;;30.85;69.38
8298;BME280;4187;42.778;23.242;2023-07-09T11:58:22;95689.81;;;30.85;67.91
8298;BME280;4187;42.778;23.242;2023-07-09T12:00:50;95680.56;;;30.86;67.90
8298;BME280;4187;42.778;23.242;2023-07-09T12:03:20;95678.09;;;30.84;66.70
8298;BME280;4187;42.778;23.242;2023-07-09T12:05:49;95684.66;;;30.88;63.45
8298;BME280;4187;42.778;23.242;2023-07-09T12:08:26;95689.13;;;30.67;66.18
8298;BME280;4187;42.778;23.242;2023-07-09T12:10:54;95685.94;;;30.75;67.77
8298;BME280;4187;42.778;23.242;2023-07-09T12:13:20;95688.31;;;30.67;67.73
8298;BME280;4187;42.778;23.242;2023-07-09T12:15:47;95659.84;;;30.53;67.79
8298;BME280;4187;42.778;23.242;2023-07-09T12:18:15;95681.91;;;30.83;68.21
8298;BME280;4187;42.778;23.242;2023-07-09T12:20:47;95682.19;;;30.87;66.54
8298;BME280;4187;42.778;23.242;2023-07-09T12:23:22;95679.53;;;30.92;67.46
8298;BME280;4187;42.778;23.242;2023-07-09T12:25:50;95670.78;;;30.90;67.50
8298;BME280;4187;42.778;23.242;2023-07-09T12:28:19;95671.31;;;30.87;65.55
8298;BME280;4187;42.778;23.242;2023-07-09T12:30:47;95676.97;;;30.80;64.82
8298;BME280;4187;42.778;23.242;2023-07-09T12:33:16;95679.47;;;30.87;67.04
8298;BME280;4187;42.778;23.242;2023-07-09T12:35:46;95679.03;;;30.95;64.80
8298;BME280;4187;42.778;23.242;2023-07-09T12:38:20;95678.34;;;30.83;65.09
8298;BME280;4187;42.778;23.242;2023-07-09T12:40:48;95668.78;;;30.80;66.02
8298;BME280;4187;42.778;23.242;2023-07-09T12:43:17;95659.34;;;30.56;66.87
8298;BME280;4187;42.778;23.242;2023-07-09T12:45:46;95669.59;;;30.75;64.46
8298;BME280;4187;42.778;23.242;2023-07-09T12:48:14;95660.63;;;30.80;66.28
8298;BME280;4187;42.778;23.242;2023-07-09T12:50:41;95656.53;;;30.83;66.17
8298;BME280;4187;42.778;23.242;2023-07-09T12:53:13;95653.44;;;30.69;65.13
8298;BME280;4187;42.778;23.242;2023-07-09T12:55:45;95657.59;;;30.76;67.70
8298;BME280;4187;42.778;23.242;2023-07-09T12:58:18;95642.81;;;30.67;69.44
8298;BME280;4187;42.778;23.242;2023-07-09T13:00:49;95639.22;;;30.62;67.51
8298;BME280;4187;42.778;23.242;2023-07-09T13:03:19;95650.16;;;30.67;70.28
8298;BME280;4187;42.778;23.242;2023-07-09T13:05:57;95654.41;;;30.85;68.82
8298;BME280;4187;42.778;23.242;2023-07-09T13:08:25;95651.44;;;30.91;70.16
8298;BME280;4187;42.778;23.242;2023-07-09T13:10:54;95648.50;;;30.98;68.20
8298;BME280;4187;42.778;23.242;2023-07-09T13:13:23;95646.84;;;30.97;69.54
8298;BME280;4187;42.778;23.242;2023-07-09T13:15:52;95648.47;;;30.93;67.85
8298;BME280;4187;42.778;23.242;2023-07-09T13:18:23;95646.94;;;30.75;68.17